createdAt,value
2023-03-06T00:00:56.296Z,12.60
2023-03-06T00:03:27.757Z,11.40
2023-03-06T00:05:57.490Z,9.30
2023-03-06T00:08:27.325Z,8.30
2023-03-06T00:10:56.161Z,10.80
2023-03-06T00:13:24.928Z,10.40
2023-03-06T00:15:52.745Z,10.70
2023-03-06T00:18:21.543Z,9.80
2023-03-06T00:20:49.399Z,11.10
2023-03-06T00:23:17.227Z,9.80
2023-03-06T00:25:45.549Z,9.70
2023-03-06T00:28:14.931Z,11.00
2023-03-06T00:30:43.818Z,14.10
2023-03-06T00:33:12.374Z,12.40
2023-03-06T00:35:41.116Z,10.10
2023-03-06T00:38:11.937Z,8.40
2023-03-06T00:40:39.867Z,8.70
2023-03-06T00:43:08.506Z,9.40
2023-03-06T00:45:37.346Z,11.70
2023-03-06T00:48:05.878Z,10.40
2023-03-06T00:50:35.289Z,10.10
2023-03-06T00:53:03.563Z,17.70
2023-03-06T00:55:33.388Z,12.70
2023-03-06T00:58:01.239Z,11.40
2023-03-06T01:00:29.174Z,12.90
2023-03-06T01:02:56.996Z,12.70
2023-03-06T01:05:24.972Z,13.40
2023-03-06T01:07:52.937Z,11.40
2023-03-06T01:10:20.937Z,13.70
2023-03-06T01:12:48.976Z,13.40
2023-03-06T01:15:16.902Z,14.00
2023-03-06T01:17:44.780Z,14.10
2023-03-06T01:20:15.342Z,11.90
2023-03-06T01:22:43.320Z,15.60
2023-03-06T01:25:11.504Z,13.10
2023-03-06T01:27:40.732Z,10.20
2023-03-06T01:30:12.572Z,9.40
2023-03-06T01:32:40.835Z,10.30
2023-03-06T01:35:09.178Z,15.10
2023-03-06T01:37:37.508Z,11.30
2023-03-06T01:40:06.507Z,15.70
2023-03-06T01:42:34.459Z,12.20
2023-03-06T01:45:09.155Z,14.00
2023-03-06T01:47:37.074Z,12.60
2023-03-06T01:50:08.790Z,9.70
2023-03-06T01:52:43.735Z,12.00
2023-03-06T01:55:23.539Z,11.00
2023-03-06T01:57:54.858Z,12.10
2023-03-06T02:00:25.194Z,15.20
2023-03-06T02:03:06.871Z,12.30
2023-03-06T02:05:37.784Z,14.50
2023-03-06T02:08:07.004Z,14.00
2023-03-06T02:10:35.260Z,12.70
2023-03-06T02:13:03.441Z,14.50
2023-03-06T02:15:31.354Z,10.60
2023-03-06T02:18:00.219Z,14.30
2023-03-06T02:20:39.302Z,14.20
2023-03-06T02:23:15.127Z,16.30
2023-03-06T02:25:43.202Z,15.10
2023-03-06T02:28:13.714Z,12.40
2023-03-06T02:30:42.871Z,15.40
2023-03-06T02:33:15.823Z,12.80
2023-03-06T02:35:56.779Z,14.00
2023-03-06T02:38:29.372Z,13.50
2023-03-06T02:40:58.204Z,12.90
2023-03-06T02:43:34.023Z,12.50
2023-03-06T02:46:03.351Z,13.90
2023-03-06T02:48:31.643Z,11.70
2023-03-06T02:50:59.400Z,13.20
2023-03-06T02:53:27.268Z,11.70
2023-03-06T02:55:55.088Z,12.30
2023-03-06T02:58:22.882Z,13.00
2023-03-06T03:00:50.894Z,12.10
2023-03-06T03:03:19.439Z,12.00
2023-03-06T03:05:47.185Z,10.80
2023-03-06T03:08:28.327Z,12.80
2023-03-06T03:10:59.121Z,9.60
2023-03-06T03:13:28.503Z,13.20
2023-03-06T03:16:08.788Z,11.00
2023-03-06T03:18:36.794Z,12.00
2023-03-06T03:21:11.603Z,12.20
2023-03-06T03:23:39.844Z,13.60
2023-03-06T03:26:14.063Z,13.00
2023-03-06T03:28:45.364Z,11.70
2023-03-06T03:31:14.486Z,11.40
2023-03-06T03:33:42.895Z,11.00
2023-03-06T03:36:10.828Z,13.20
2023-03-06T03:38:41.844Z,12.20
2023-03-06T03:41:09.749Z,15.40
2023-03-06T03:43:37.645Z,9.40
2023-03-06T03:46:06.298Z,11.20
2023-03-06T03:48:35.065Z,9.40
2023-03-06T03:51:11.351Z,10.20
2023-03-06T03:53:41.753Z,10.80
2023-03-06T03:56:11.501Z,10.10
2023-03-06T03:58:46.194Z,8.90
2023-03-06T04:01:14.209Z,10.70
2023-03-06T04:03:42.195Z,11.80
2023-03-06T04:06:10.384Z,10.20
2023-03-06T04:08:38.781Z,13.50
2023-03-06T04:11:06.910Z,10.30
2023-03-06T04:13:35.063Z,11.60
2023-03-06T04:16:04.560Z,12.10
2023-03-06T04:18:33.408Z,11.50
2023-03-06T04:21:04.679Z,11.50
2023-03-06T04:23:32.670Z,10.80
2023-03-06T04:26:00.928Z,11.80
2023-03-06T04:28:29.083Z,11.70
2023-03-06T04:30:57.722Z,10.80
2023-03-06T04:33:25.652Z,10.00
2023-03-06T04:35:54.763Z,12.80
2023-03-06T04:38:25.834Z,12.90
2023-03-06T04:40:53.667Z,12.70
2023-03-06T04:43:21.836Z,11.60
2023-03-06T04:45:49.832Z,13.70
2023-03-06T04:48:18.494Z,14.60
2023-03-06T04:50:46.845Z,11.90
2023-03-06T04:53:16.609Z,13.70
2023-03-06T04:55:44.423Z,13.20
2023-03-06T04:58:13.991Z,11.30
2023-03-06T05:00:42.079Z,15.70
2023-03-06T05:03:10.500Z,10.40
2023-03-06T05:05:38.276Z,11.90
2023-03-06T05:08:06.605Z,15.40
2023-03-06T05:10:34.506Z,12.00
2023-03-06T05:13:02.203Z,14.10
2023-03-06T05:15:30.061Z,13.80
2023-03-06T05:17:57.858Z,12.00
2023-03-06T05:20:25.666Z,15.00
2023-03-06T05:22:53.408Z,14.10
2023-03-06T05:25:21.146Z,10.20
2023-03-06T05:27:49.159Z,13.20
2023-03-06T05:30:17.099Z,15.40
2023-03-06T05:32:44.875Z,12.00
2023-03-06T05:35:20.701Z,12.90
2023-03-06T05:37:48.951Z,11.20
2023-03-06T05:40:17.830Z,11.40
2023-03-06T05:42:45.650Z,12.50
2023-03-06T05:45:13.447Z,11.40
2023-03-06T05:47:41.271Z,14.00
2023-03-06T05:50:10.602Z,12.50
2023-03-06T05:52:39.892Z,9.10
2023-03-06T05:55:08.468Z,9.20
2023-03-06T05:57:36.298Z,9.90
2023-03-06T06:00:05.069Z,10.40
2023-03-06T06:02:41.268Z,12.10
2023-03-06T06:05:12.784Z,9.50
2023-03-06T06:07:41.482Z,10.10
2023-03-06T06:10:11.343Z,8.30
2023-03-06T06:12:39.113Z,11.10
2023-03-06T06:15:07.457Z,8.40
2023-03-06T06:17:35.255Z,8.30
2023-03-06T06:20:03.822Z,9.60
2023-03-06T06:22:31.713Z,11.00
2023-03-06T06:24:59.718Z,10.30
2023-03-06T06:27:27.546Z,9.50
2023-03-06T06:29:55.349Z,9.30
2023-03-06T06:32:23.122Z,7.10
2023-03-06T06:34:50.889Z,11.30
2023-03-06T06:37:18.857Z,7.40
2023-03-06T06:39:46.603Z,7.60
2023-03-06T06:42:31.499Z,7.00
2023-03-06T06:45:03.474Z,9.40
2023-03-06T06:47:32.007Z,8.10
2023-03-06T06:50:00.172Z,7.80
2023-03-06T06:52:27.989Z,10.20
2023-03-06T06:55:02.515Z,11.80
2023-03-06T06:57:30.395Z,9.00
2023-03-06T06:59:58.314Z,8.30
2023-03-06T07:02:26.055Z,9.30
2023-03-06T07:05:03.619Z,13.00
2023-03-06T07:07:38.013Z,8.20
2023-03-06T07:10:08.754Z,11.60
2023-03-06T07:12:37.082Z,11.10
2023-03-06T07:15:06.252Z,12.20
2023-03-06T07:17:34.174Z,11.40
2023-03-06T07:20:02.174Z,12.10
2023-03-06T07:22:35.877Z,8.60
2023-03-06T07:25:09.982Z,7.70
2023-03-06T07:27:37.889Z,10.50
2023-03-06T07:30:06.329Z,9.90
2023-03-06T07:32:34.232Z,8.80
2023-03-06T07:35:19.119Z,8.90
2023-03-06T07:37:47.761Z,9.00
2023-03-06T07:40:15.549Z,9.00
2023-03-06T07:42:43.592Z,9.50
2023-03-06T07:45:13.621Z,10.90
2023-03-06T07:47:41.630Z,7.80
2023-03-06T07:50:10.166Z,11.20
2023-03-06T07:52:38.012Z,8.40
2023-03-06T07:55:06.302Z,8.90
2023-03-06T07:57:34.096Z,8.60
2023-03-06T08:00:02.361Z,8.80
2023-03-06T08:02:30.117Z,9.70
2023-03-06T08:04:57.910Z,9.30
2023-03-06T08:07:25.824Z,11.80
2023-03-06T08:09:53.567Z,11.00
2023-03-06T08:12:21.420Z,8.70
2023-03-06T08:14:49.192Z,7.60
2023-03-06T08:17:17.030Z,17.20
2023-03-06T08:19:44.798Z,40.50
2023-03-06T08:22:14.096Z,11.70
2023-03-06T08:24:42.007Z,13.60
2023-03-06T08:27:09.788Z,10.50
2023-03-06T08:29:37.679Z,10.00
2023-03-06T08:32:05.873Z,11.80
2023-03-06T08:34:33.628Z,10.80
2023-03-06T08:37:01.466Z,12.20
2023-03-06T08:39:29.196Z,9.50
2023-03-06T08:41:56.953Z,10.50
2023-03-06T08:44:24.781Z,12.40
2023-03-06T08:46:52.572Z,10.50
2023-03-06T08:49:20.490Z,8.40
2023-03-06T08:51:48.295Z,11.00
2023-03-06T08:54:16.117Z,10.40
2023-03-06T08:56:43.970Z,12.00
2023-03-06T08:59:13.510Z,12.30
2023-03-06T14:03:09.008Z,14.30
2023-03-06T14:06:24.735Z,13.50
2023-03-06T14:08:56.432Z,14.50
2023-03-06T14:11:24.747Z,13.30
2023-03-06T14:13:55.569Z,13.50
2023-03-06T14:16:25.930Z,11.70
2023-03-06T14:18:56.139Z,15.50
2023-03-06T14:21:40.383Z,14.60
2023-03-06T14:24:15.752Z,15.00
2023-03-06T14:26:51.411Z,14.10
2023-03-06T14:29:24.698Z,14.10
2023-03-06T14:31:57.375Z,13.10
2023-03-06T14:34:30.548Z,13.60
2023-03-06T14:37:01.409Z,14.50
2023-03-06T14:39:40.833Z,15.30
2023-03-06T14:42:20.840Z,18.60
2023-03-06T14:45:00.610Z,14.20
2023-03-06T14:47:30.896Z,13.30
2023-03-06T14:50:18.529Z,13.20
2023-03-06T14:52:46.548Z,14.80
2023-03-06T14:55:19.785Z,14.00
2023-03-06T14:57:51.395Z,14.20
2023-03-06T15:00:21.573Z,13.90
2023-03-06T15:02:51.650Z,14.00
2023-03-06T15:05:26.549Z,12.70
2023-03-06T15:07:57.922Z,10.20
2023-03-06T15:10:32.227Z,13.20
2023-03-06T15:13:20.156Z,10.40
2023-03-06T15:16:05.532Z,13.20
2023-03-06T15:18:38.867Z,15.00
2023-03-06T15:21:10.545Z,13.70
2023-03-06T15:23:44.233Z,13.10
2023-03-06T15:26:36.923Z,11.50
2023-03-06T15:29:21.222Z,13.20
2023-03-06T15:31:49.413Z,14.40
2023-03-06T15:34:25.151Z,15.90
2023-03-06T15:36:57.742Z,13.50
2023-03-06T15:39:32.762Z,15.40
2023-03-06T15:42:08.987Z,16.80
2023-03-06T15:44:36.818Z,16.10
2023-03-06T15:47:11.562Z,14.00
2023-03-06T15:49:39.727Z,14.60
2023-03-06T15:52:08.102Z,13.90
2023-03-06T15:54:36.018Z,13.60
2023-03-06T15:57:08.472Z,16.30
2023-03-06T15:59:41.984Z,17.10
2023-03-06T16:02:20.827Z,19.10
2023-03-06T16:04:49.421Z,17.10
2023-03-06T16:07:17.700Z,19.80
2023-03-06T16:09:45.820Z,17.90
2023-03-06T16:12:15.165Z,20.30
2023-03-06T16:14:43.926Z,19.80
2023-03-06T16:17:12.598Z,24.60
2023-03-06T16:19:40.459Z,22.20
2023-03-06T16:22:08.466Z,24.70
2023-03-06T16:24:37.353Z,22.50
2023-03-06T16:27:05.523Z,22.70
2023-03-06T16:29:33.635Z,22.10
2023-03-06T16:32:02.240Z,26.50
2023-03-06T16:34:30.422Z,23.60
2023-03-06T16:36:58.197Z,21.10
2023-03-06T16:39:26.065Z,20.00
2023-03-06T16:41:53.979Z,19.20
2023-03-06T16:44:21.766Z,24.20
2023-03-06T16:46:50.578Z,21.20
2023-03-06T16:49:25.013Z,18.10
2023-03-06T16:51:53.385Z,21.00
2023-03-06T16:54:23.247Z,21.10
2023-03-06T16:56:51.029Z,23.90
2023-03-06T16:59:19.199Z,17.30
2023-03-06T17:01:47.245Z,18.90
2023-03-06T17:04:15.192Z,19.30
2023-03-06T17:06:43.465Z,17.70
2023-03-06T17:09:11.838Z,21.70
2023-03-06T17:11:42.711Z,19.40
2023-03-06T17:14:11.024Z,24.40
2023-03-06T17:16:40.506Z,25.20
2023-03-06T17:19:08.742Z,21.50
2023-03-06T17:21:38.642Z,21.60
2023-03-06T17:24:06.896Z,23.10
2023-03-06T17:26:38.200Z,25.40
2023-03-06T17:29:07.196Z,24.70
2023-03-06T17:31:35.552Z,30.70
2023-03-06T17:34:03.356Z,24.50
2023-03-06T17:36:31.901Z,30.50
2023-03-06T17:39:02.064Z,26.60
2023-03-06T17:41:32.872Z,29.50
2023-03-06T17:44:01.887Z,24.50
2023-03-06T17:46:32.215Z,42.20
2023-03-06T17:49:00.514Z,36.90
2023-03-06T17:51:28.643Z,33.70
2023-03-06T17:53:57.389Z,35.30
2023-03-06T17:56:25.999Z,34.40
2023-03-06T17:58:53.829Z,26.60
2023-03-06T18:01:23.780Z,33.00
2023-03-06T18:03:51.658Z,20.40
2023-03-06T18:06:21.009Z,21.50
2023-03-06T18:08:52.616Z,15.20
2023-03-06T18:11:21.225Z,15.30
2023-03-06T18:13:49.616Z,14.30
2023-03-06T18:16:20.933Z,15.00
2023-03-06T18:18:55.133Z,16.20
2023-03-06T18:21:24.330Z,13.90
2023-03-06T18:23:55.311Z,13.00
2023-03-06T18:26:29.665Z,14.00
2023-03-06T18:29:01.431Z,12.30
2023-03-06T18:31:35.189Z,10.40
2023-03-06T18:34:06.568Z,11.70
2023-03-06T18:36:35.608Z,12.80
2023-03-06T18:39:05.981Z,10.90
2023-03-06T18:41:34.015Z,11.10
2023-03-06T18:44:02.553Z,13.00
2023-03-06T18:46:39.822Z,11.60
2023-03-06T18:49:07.783Z,12.70
2023-03-06T18:51:38.183Z,13.50
2023-03-06T18:54:06.798Z,14.70
2023-03-06T18:56:35.332Z,12.80
2023-03-06T18:59:04.790Z,16.50
2023-03-06T19:01:33.710Z,13.40
2023-03-06T19:04:03.074Z,17.90
2023-03-06T19:06:31.389Z,18.50
2023-03-06T19:09:01.446Z,15.70
2023-03-06T19:11:29.911Z,15.60
2023-03-06T19:13:58.294Z,15.30
2023-03-06T19:16:28.602Z,15.20
2023-03-06T19:18:57.576Z,15.70
2023-03-06T19:21:26.854Z,16.80
2023-03-06T19:23:55.979Z,22.80
2023-03-06T19:26:24.015Z,20.00
2023-03-06T19:28:52.528Z,23.90
2023-03-06T19:31:25.052Z,20.40
2023-03-06T19:33:54.404Z,20.30
2023-03-06T19:36:26.750Z,21.40
2023-03-06T19:38:55.749Z,20.30
2023-03-06T19:41:24.154Z,19.70
2023-03-06T19:43:54.233Z,23.20
2023-03-06T19:46:23.393Z,20.30
2023-03-06T19:49:02.969Z,18.80
2023-03-06T19:51:30.813Z,20.90
2023-03-06T19:53:59.404Z,19.70
2023-03-06T19:56:29.047Z,19.30
2023-03-06T19:58:57.375Z,21.00
2023-03-06T20:01:26.682Z,21.90
2023-03-06T20:03:59.191Z,17.10
2023-03-06T20:06:31.142Z,15.50
2023-03-06T20:09:00.378Z,22.40
2023-03-06T20:11:32.559Z,16.50
2023-03-06T20:16:30.529Z,16.70
2023-03-06T20:19:00.486Z,14.90
2023-03-06T20:21:30.366Z,16.00
2023-03-06T20:23:58.310Z,14.50
2023-03-06T20:26:28.453Z,15.70
2023-03-06T20:28:57.104Z,15.10
2023-03-06T20:31:27.301Z,13.80
2023-03-06T20:33:57.518Z,15.90
2023-03-06T20:36:30.621Z,17.30
2023-03-06T20:38:59.840Z,15.50
2023-03-06T20:41:29.049Z,15.40
2023-03-06T20:43:58.760Z,16.20
2023-03-06T20:46:26.602Z,11.20
2023-03-06T20:48:54.792Z,12.30
2023-03-06T20:51:31.723Z,13.70
2023-03-06T20:54:01.172Z,14.10
2023-03-06T20:56:33.868Z,15.10
2023-03-06T20:59:01.922Z,14.70
2023-03-06T21:01:35.032Z,14.70
2023-03-06T21:04:04.550Z,16.00
2023-03-06T21:06:32.917Z,17.10
2023-03-06T21:09:01.259Z,14.60
2023-03-06T21:11:29.691Z,15.60
2023-03-06T21:13:57.596Z,17.80
2023-03-06T21:16:28.156Z,15.60
2023-03-06T21:18:57.646Z,16.30
2023-03-06T21:21:29.225Z,20.30
2023-03-06T21:23:57.700Z,18.20
2023-03-06T21:26:28.081Z,20.10
2023-03-06T21:28:58.148Z,18.30
2023-03-06T21:31:27.118Z,17.90
2023-03-06T21:33:55.649Z,16.30
2023-03-06T21:36:23.516Z,18.30
2023-03-06T21:38:52.421Z,18.20
2023-03-06T21:41:24.791Z,18.00
2023-03-06T21:44:00.888Z,18.70
2023-03-06T21:46:29.018Z,20.10
2023-03-06T21:48:57.212Z,22.80
2023-03-06T21:51:26.269Z,19.70
2023-03-06T21:53:55.424Z,20.60
2023-03-06T21:56:25.440Z,19.30
2023-03-06T21:58:53.454Z,21.10
2023-03-06T22:01:24.039Z,19.60
2023-03-06T22:03:52.211Z,22.20
2023-03-06T22:06:25.394Z,21.50
2023-03-06T22:08:55.061Z,19.60
2023-03-06T22:11:25.633Z,21.90
2023-03-06T22:13:53.467Z,22.50
2023-03-06T22:16:21.418Z,26.30
2023-03-06T22:18:51.477Z,28.50
2023-03-06T22:21:21.493Z,25.80
2023-03-06T22:23:54.280Z,29.20
2023-03-06T22:26:22.179Z,26.00
2023-03-06T22:28:50.299Z,23.70
2023-03-06T22:31:26.332Z,24.30
2023-03-06T22:33:55.280Z,19.30
2023-03-06T22:36:24.009Z,21.80
2023-03-06T22:38:57.216Z,17.20
2023-03-06T22:41:28.264Z,22.90
2023-03-06T22:43:57.138Z,20.20
2023-03-06T22:46:25.554Z,18.30
2023-03-06T22:48:55.921Z,19.70
2023-03-06T22:51:23.696Z,19.40
2023-03-06T22:53:51.531Z,21.80
2023-03-06T22:56:20.826Z,19.80
2023-03-06T22:58:48.996Z,17.50
2023-03-06T23:01:18.010Z,20.10
2023-03-06T23:03:51.401Z,20.60
2023-03-06T23:06:24.677Z,20.60
2023-03-06T23:09:01.820Z,27.30
2023-03-06T23:11:30.277Z,25.30
2023-03-06T23:14:17.974Z,22.90
2023-03-06T23:17:04.824Z,21.30
2023-03-06T23:19:51.730Z,20.00
2023-03-06T23:22:38.092Z,17.10
2023-03-06T23:25:24.899Z,16.50
2023-03-06T23:27:52.674Z,17.50
2023-03-06T23:30:20.525Z,17.90
2023-03-06T23:32:48.315Z,16.70
2023-03-06T23:35:16.181Z,17.00
2023-03-06T23:37:44.041Z,16.40
2023-03-06T23:40:13.735Z,17.40
2023-03-06T23:42:41.466Z,19.10
2023-03-06T23:45:10.012Z,20.00
2023-03-06T23:47:37.750Z,15.60
2023-03-06T23:50:06.432Z,18.60
2023-03-06T23:52:34.311Z,18.50
2023-03-06T23:55:02.066Z,17.60
2023-03-06T23:57:30.684Z,17.50
2023-03-06T23:59:58.522Z,18.60
